Time;durP1;ratioP1;P1;durP2;ratioP2;P2;SDS_P1;SDS_P2;PMS_P1;PMS_P2;Temp;Humidity;BMP_temperature;BMP_pressure;BME280_temperature;BME280_humidity;BME280_pressure;Samples;Min_cycle;Max_cycle;Signal;HPM_P1;HPM_P2
2022/06/03 00:01:08;;;;;;;5.97;4.90;;;11.40;99.90;;;;;;4954899;28;20228;-64
2022/06/03 00:03:50;;;;;;;7.67;4.93;;;11.30;99.90;;;;;;4974990;28;20296;-64
2022/06/03 00:06:25;;;;;;;7.17;4.63;;;11.30;99.90;;;;;;4974649;28;20600;-65
2022/06/03 00:09:01;;;;;;;8.57;5.10;;;11.40;99.90;;;;;;4975007;28;20292;-64
2022/06/03 00:11:51;;;;;;;7.33;5.50;;;11.40;99.90;;;;;;4975013;28;20201;-65
2022/06/03 00:14:27;;;;;;;7.60;5.60;;;11.30;99.90;;;;;;4958570;28;20197;-64
2022/06/03 00:17:28;;;;;;;6.50;5.10;;;11.30;99.90;;;;;;4974697;28;20759;-65
2022/06/03 00:20:13;;;;;;;9.40;5.20;;;11.30;99.90;;;;;;4974491;28;20208;-65
2022/06/03 00:23:05;;;;;;;6.97;5.33;;;11.20;99.90;;;;;;4958200;28;20201;-64
2022/06/03 00:25:47;;;;;;;7.60;5.57;;;11.20;99.90;;;;;;4974500;28;20241;-65
2022/06/03 00:28:20;;;;;;;8.43;6.00;;;11.10;99.90;;;;;;4967480;28;20230;-64
2022/06/03 00:31:20;;;;;;;9.13;6.53;;;11.10;99.90;;;;;;5014820;28;20189;-65
2022/06/03 00:33:57;;;;;;;7.37;6.27;;;11.10;99.90;;;;;;5015687;28;20230;-74
2022/06/03 00:36:38;;;;;;;9.83;6.60;;;11.10;99.90;;;;;;5015812;28;20218;-75
2022/06/03 00:39:26;;;;;;;9.87;6.30;;;11.00;99.90;;;;;;5015622;28;20230;-72
2022/06/03 00:42:31;;;;;;;8.90;6.53;;;11.00;99.90;;;;;;5014597;28;20212;-75
2022/06/03 00:45:19;;;;;;;10.73;6.73;;;11.00;99.90;;;;;;5014279;28;20208;-69
2022/06/03 00:48:22;;;;;;;12.90;7.10;;;11.00;99.90;;;;;;5014036;28;20231;-75
2022/06/03 00:50:58;;;;;;;10.70;7.47;;;11.00;99.90;;;;;;5014196;28;20203;-75
2022/06/03 00:53:56;;;;;;;9.90;7.00;;;11.00;99.90;;;;;;4997740;28;20202;-74
2022/06/03 00:56:31;;;;;;;10.10;6.77;;;11.00;99.90;;;;;;4974062;28;20676;-71
2022/06/03 00:59:24;;;;;;;8.70;6.73;;;11.00;99.90;;;;;;4974167;28;20237;-75
2022/06/03 01:02:28;;;;;;;9.83;7.03;;;11.00;99.90;;;;;;4938861;29;20217;-75
2022/06/03 01:05:20;;;;;;;12.63;7.30;;;11.00;99.90;;;;;;4954465;29;20241;-75
2022/06/03 01:07:58;;;;;;;9.37;6.80;;;10.90;99.90;;;;;;4954146;28;20234;-74
2022/06/03 01:10:31;;;;;;;8.80;6.73;;;10.90;99.90;;;;;;4954686;29;20289;-73
2022/06/03 01:13:12;;;;;;;9.73;7.20;;;10.80;99.90;;;;;;4954428;28;20206;-72
2022/06/03 01:16:05;;;;;;;8.07;6.20;;;10.90;99.90;;;;;;4954377;28;20249;-75
2022/06/03 01:18:35;;;;;;;8.03;6.57;;;11.00;99.90;;;;;;4954496;29;20608;-65
2022/06/03 01:21:23;;;;;;;7.83;6.10;;;11.00;99.90;;;;;;4954174;28;20586;-65
2022/06/03 01:24:04;;;;;;;13.30;6.97;;;10.90;99.90;;;;;;4954315;29;20743;-65
2022/06/03 01:26:57;;;;;;;10.17;6.43;;;10.90;99.90;;;;;;4953969;28;20827;-64
2022/06/03 01:29:31;;;;;;;8.07;6.30;;;10.90;99.90;;;;;;4938321;29;20216;-65
2022/06/03 01:32:32;;;;;;;9.27;6.10;;;10.90;99.90;;;;;;4938138;29;20319;-66
2022/06/03 01:35:08;;;;;;;8.80;6.40;;;10.90;99.90;;;;;;4976513;28;20232;-66
2022/06/03 01:37:48;;;;;;;11.83;6.20;;;10.80;99.90;;;;;;4976560;28;20223;-64
2022/06/03 01:40:40;;;;;;;9.00;6.20;;;10.80;99.90;;;;;;5014365;28;20208;-64
2022/06/03 01:43:41;;;;;;;9.93;6.60;;;10.80;99.90;;;;;;5014574;28;20200;-67
2022/06/03 01:46:29;;;;;;;11.07;6.80;;;10.80;99.90;;;;;;5013144;28;20229;-64
2022/06/03 01:48:56;;;;;;;8.20;6.60;;;10.80;99.90;;;;;;5013297;28;20545;-64
2022/06/03 01:51:42;;;;;;;9.97;6.67;;;10.70;99.90;;;;;;5013265;28;20223;-65
2022/06/03 01:54:17;;;;;;;11.10;6.57;;;10.70;99.90;;;;;;5012977;28;20188;-65
2022/06/03 01:56:56;;;;;;;8.47;6.30;;;10.70;99.90;;;;;;5012966;28;20639;-73
2022/06/03 01:59:47;;;;;;;7.50;6.43;;;10.70;99.90;;;;;;5012633;28;20204;-76
2022/06/03 02:02:32;;;;;;;11.60;6.70;;;10.70;99.90;;;;;;5012750;28;20231;-75
2022/06/03 02:05:08;;;;;;;10.27;6.90;;;10.60;99.90;;;;;;5012752;28;20616;-72
2022/06/03 02:07:57;;;;;;;8.57;7.00;;;10.60;99.90;;;;;;5013815;28;20231;-76
2022/06/03 02:11:01;;;;;;;10.43;7.43;;;10.60;99.90;;;;;;5012905;28;20243;-71
2022/06/03 02:13:49;;;;;;;7.97;6.00;;;10.50;99.90;;;;;;5012732;28;20653;-72
2022/06/03 02:16:28;;;;;;;8.63;6.93;;;10.60;99.90;;;;;;5013804;28;20657;-73
2022/06/03 02:18:58;;;;;;;8.87;7.10;;;10.50;99.90;;;;;;5011841;28;20204;-66
2022/06/03 02:21:46;;;;;;;9.77;7.80;;;10.40;99.90;;;;;;5012300;28;20223;-75
2022/06/03 02:24:24;;;;;;;9.87;7.93;;;10.60;99.90;;;;;;5012578;28;20304;-70
2022/06/03 02:26:51;;;;;;;9.33;7.50;;;10.50;99.90;;;;;;5012293;28;20310;-64
2022/06/03 02:32:28;;;;;;;11.33;7.57;;;10.50;99.90;;;;;;5013620;28;20563;-65
2022/06/03 02:35:27;;;;;;;9.27;7.63;;;10.50;99.90;;;;;;5012441;28;20211;-65
2022/06/03 02:38:19;;;;;;;10.07;7.90;;;10.50;99.90;;;;;;5012213;28;20235;-64
2022/06/03 02:41:07;;;;;;;8.87;7.23;;;10.50;99.90;;;;;;5013415;28;20192;-65
2022/06/03 02:44:08;;;;;;;9.80;7.57;;;10.50;99.90;;;;;;5012385;28;20299;-66
2022/06/03 02:46:52;;;;;;;11.67;7.27;;;10.50;99.90;;;;;;5011974;28;20202;-66
2022/06/03 02:49:56;;;;;;;9.83;7.43;;;10.50;99.90;;;;;;5011892;28;20239;-65
2022/06/03 02:52:26;;;;;;;9.67;7.47;;;10.60;99.90;;;;;;5012143;28;20196;-65
2022/06/03 02:55:01;;;;;;;11.30;8.07;;;10.60;99.90;;;;;;5011877;28;20286;-66
2022/06/03 02:58:04;;;;;;;12.07;7.90;;;10.50;99.90;;;;;;5011757;28;20725;-65
2022/06/03 03:00:55;;;;;;;9.50;7.53;;;10.50;99.90;;;;;;5011842;28;20195;-66
2022/06/03 03:03:50;;;;;;;8.67;7.10;;;10.60;99.90;;;;;;5012119;28;20283;-65
2022/06/03 03:06:42;;;;;;;8.60;6.90;;;10.60;99.90;;;;;;5012030;28;20211;-65
2022/06/03 03:09:09;;;;;;;9.00;6.87;;;10.60;99.90;;;;;;5011956;28;20196;-64
2022/06/03 03:11:54;;;;;;;9.50;7.00;;;10.70;99.90;;;;;;5012994;28;20287;-64
2022/06/03 03:14:24;;;;;;;10.87;7.40;;;10.60;99.90;;;;;;5011602;28;20242;-64
2022/06/03 03:17:22;;;;;;;12.40;7.40;;;10.70;99.90;;;;;;5011785;28;20189;-64
2022/06/03 03:20:23;;;;;;;8.53;6.80;;;10.70;99.90;;;;;;5011560;28;20211;-63
2022/06/03 03:22:56;;;;;;;9.53;6.77;;;10.70;99.90;;;;;;5011680;28;20282;-63
2022/06/03 03:25:43;;;;;;;11.50;6.87;;;10.80;99.90;;;;;;5011626;28;20210;-64
2022/06/03 03:28:24;;;;;;;8.60;6.40;;;10.80;99.90;;;;;;4955929;28;20267;-64
2022/06/03 03:31:19;;;;;;;8.20;6.40;;;10.80;99.90;;;;;;4958714;28;20201;-65
2022/06/03 03:34:15;;;;;;;7.90;6.40;;;10.90;99.90;;;;;;4975585;28;20197;-64
2022/06/03 03:37:04;;;;;;;9.47;6.47;;;10.90;99.90;;;;;;4921060;29;20213;-64
2022/06/03 03:39:36;;;;;;;12.13;6.97;;;10.90;99.90;;;;;;4937079;29;20206;-65
2022/06/03 03:42:40;;;;;;;8.87;6.67;;;10.90;99.90;;;;;;4921128;29;20229;-65
2022/06/03 03:45:24;;;;;;;9.90;6.23;;;11.00;99.90;;;;;;4936606;29;20289;-65
2022/06/03 03:48:20;;;;;;;8.57;6.10;;;11.10;99.90;;;;;;4920930;29;20309;-64
2022/06/03 03:51:02;;;;;;;8.50;5.57;;;11.20;99.90;;;;;;4906614;29;20301;-64
2022/06/03 03:53:47;;;;;;;9.17;5.80;;;11.30;99.90;;;;;;4920717;29;20305;-65
2022/06/03 03:56:50;;;;;;;8.67;5.80;;;11.40;99.90;;;;;;4936565;29;20290;-64
2022/06/03 03:59:26;;;;;;;7.43;5.13;;;11.60;99.90;;;;;;4920869;29;20237;-64
2022/06/03 04:02:30;;;;;;;7.17;5.67;;;11.70;99.90;;;;;;4936659;29;20310;-65
2022/06/03 04:05:28;;;;;;;7.97;5.43;;;11.80;99.90;;;;;;4939593;28;20207;-64
2022/06/03 04:08:14;;;;;;;7.00;5.43;;;11.90;99.90;;;;;;4978302;28;20286;-64
2022/06/03 04:11:23;;;;;;;7.43;5.40;;;12.00;99.90;;;;;;4962220;28;20560;-64
2022/06/03 04:14:05;;;;;;;6.80;5.20;;;12.10;99.90;;;;;;4950625;29;20221;-64
2022/06/03 04:16:49;;;;;;;6.50;4.93;;;12.10;99.90;;;;;;4939538;29;20321;-64
2022/06/03 04:19:38;;;;;;;6.10;5.00;;;12.20;99.90;;;;;;4939305;29;20305;-64
2022/06/03 04:22:23;;;;;;;7.70;4.87;;;12.30;99.90;;;;;;4939223;29;20257;-64
2022/06/03 04:25:37;;;;;;;5.23;4.33;;;12.40;99.90;;;;;;4939650;29;20217;-64
2022/06/03 04:28:29;;;;;;;5.47;4.33;;;12.40;99.90;;;;;;4882648;29;20364;-64
2022/06/03 04:31:29;;;;;;;6.63;4.40;;;12.50;99.90;;;;;;4882690;29;20588;-64
2022/06/03 04:34:11;;;;;;;5.73;4.73;;;12.70;99.90;;;;;;4898273;29;20219;-64
2022/06/03 04:37:11;;;;;;;6.73;4.10;;;12.70;99.90;;;;;;4882369;29;20255;-64
2022/06/03 04:39:53;;;;;;;6.03;4.07;;;12.80;99.90;;;;;;4898529;29;20706;-64
2022/06/03 04:42:38;;;;;;;5.43;4.27;;;12.90;99.90;;;;;;4866190;29;20561;-64
2022/06/03 04:45:32;;;;;;;4.80;3.70;;;12.90;99.90;;;;;;4923612;29;20269;-65
2022/06/03 04:48:37;;;;;;;4.93;4.03;;;13.00;99.90;;;;;;4936082;29;20325;-65
2022/06/03 04:51:55;;;;;;;5.57;4.20;;;13.20;99.90;;;;;;4919868;29;20206;-65
2022/06/03 04:54:52;;;;;;;4.87;4.13;;;13.40;99.90;;;;;;4919677;29;20207;-65
2022/06/03 04:57:41;;;;;;;6.67;3.87;;;13.50;99.90;;;;;;4919786;29;20370;-65
2022/06/03 05:00:21;;;;;;;8.13;4.23;;;13.70;99.90;;;;;;4935745;29;20199;-64
2022/06/03 05:03:00;;;;;;;4.70;3.90;;;13.70;99.90;;;;;;4919682;29;20203;-64
2022/06/03 05:05:30;;;;;;;6.00;3.93;;;13.90;99.90;;;;;;4999875;28;20210;-63
2022/06/03 05:08:20;;;;;;;4.73;3.93;;;13.90;99.90;;;;;;5013399;28;20246;-63
2022/06/03 05:11:24;;;;;;;5.50;4.20;;;14.10;99.90;;;;;;5013901;28;20302;-64
2022/06/03 05:14:09;;;;;;;5.13;3.60;;;14.20;99.90;;;;;;5013502;28;20233;-64
2022/06/03 05:16:45;;;;;;;10.43;3.90;;;14.30;99.90;;;;;;5013484;28;20245;-64
2022/06/03 05:19:12;;;;;;;5.23;3.30;;;14.40;99.90;;;;;;5013455;28;20661;-64
2022/06/03 05:22:28;;;;;;;4.80;3.10;;;14.40;99.90;;;;;;5013507;28;20657;-64
2022/06/03 05:25:39;;;;;;;3.60;3.23;;;14.50;99.90;;;;;;4957285;28;20690;-72
2022/06/03 05:28:18;;;;;;;4.53;3.40;;;14.70;99.90;;;;;;4973585;28;20667;-71
2022/06/03 05:31:03;;;;;;;5.00;3.50;;;14.80;99.90;;;;;;4957257;28;20666;-69
2022/06/03 05:34:02;;;;;;;3.57;3.10;;;14.80;99.90;;;;;;4973492;28;20286;-64
2022/06/03 05:36:54;;;;;;;5.70;3.00;;;14.90;99.90;;;;;;4919065;29;20254;-64
2022/06/03 05:39:47;;;;;;;3.63;2.90;;;15.00;99.90;;;;;;4934661;29;20194;-66
2022/06/03 05:42:27;;;;;;;3.83;3.17;;;15.10;99.90;;;;;;4934898;29;20310;-65
2022/06/03 05:45:22;;;;;;;4.93;3.30;;;15.20;99.90;;;;;;4918653;29;20207;-67
2022/06/03 05:48:03;;;;;;;4.57;3.13;;;15.40;99.90;;;;;;4934833;29;20715;-65
2022/06/03 05:50:38;;;;;;;3.37;2.90;;;15.40;99.90;;;;;;4934357;29;20202;-74
2022/06/03 05:53:34;;;;;;;10.50;3.63;;;15.40;99.90;;;;;;4933630;29;20310;-72
2022/06/03 05:56:29;;;;;;;3.73;2.80;;;15.50;99.90;;;;;;4934195;29;20801;-70
2022/06/03 05:58:58;;;;;;;4.87;2.93;;;15.60;99.90;;;;;;4918211;29;20298;-72
2022/06/03 06:01:34;;;;;;;3.63;2.80;;;15.60;99.90;;;;;;4970949;28;20248;-71
2022/06/03 06:04:16;;;;;;;4.77;2.90;;;15.80;99.90;;;;;;4975949;28;20584;-67
2022/06/03 06:06:59;;;;;;;12.33;3.10;;;15.80;99.90;;;;;;4992049;28;20347;-65
2022/06/03 06:10:07;;;;;;;5.13;2.60;;;15.80;99.90;;;;;;4991827;28;20243;-65
2022/06/03 06:12:42;;;;;;;3.23;2.67;;;15.90;99.90;;;;;;4940644;29;20233;-72
2022/06/03 06:15:30;;;;;;;4.10;2.70;;;16.00;99.90;;;;;;4937067;29;20228;-68
2022/06/03 06:18:09;;;;;;;6.73;2.43;;;16.10;99.90;;;;;;4937458;29;20202;-67
2022/06/03 06:20:57;;;;;;;4.87;2.97;;;16.20;99.90;;;;;;4936979;29;20233;-68
2022/06/03 06:23:44;;;;;;;3.27;2.30;;;16.30;99.90;;;;;;4936919;29;20215;-66
2022/06/03 06:26:26;;;;;;;3.37;2.20;;;16.40;99.90;;;;;;4936797;29;20312;-68
2022/06/03 06:29:09;;;;;;;3.17;2.27;;;16.40;99.90;;;;;;4937106;29;20249;-64
2022/06/03 06:31:45;;;;;;;4.20;2.20;;;16.50;99.90;;;;;;4953158;29;20300;-66
2022/06/03 06:34:32;;;;;;;3.30;2.33;;;16.60;99.90;;;;;;4936591;29;20240;-69
2022/06/03 06:37:18;;;;;;;5.83;2.70;;;16.70;99.90;;;;;;4936913;29;20674;-67
2022/06/03 06:40:02;;;;;;;3.70;2.53;;;16.80;99.90;;;;;;4936834;29;20198;-66
2022/06/03 06:42:36;;;;;;;5.20;2.50;;;16.90;99.90;;;;;;4936757;29;20240;-65
2022/06/03 06:45:38;;;;;;;3.30;2.40;;;16.80;99.90;;;;;;4936556;29;20229;-63
2022/06/03 06:48:21;;;;;;;8.77;2.97;;;16.90;99.90;;;;;;4952757;29;20296;-64
2022/06/03 06:51:02;;;;;;;3.30;2.43;;;17.00;99.90;;;;;;5009905;28;20223;-63
2022/06/03 06:53:44;;;;;;;4.50;2.53;;;16.90;99.90;;;;;;5011370;28;20646;-65
2022/06/03 06:56:38;;;;;;;3.53;2.40;;;17.00;99.90;;;;;;5011623;28;20608;-63
2022/06/03 06:59:15;;;;;;;4.70;2.57;;;17.00;99.90;;;;;;5011996;28;20203;-63
2022/06/03 07:02:00;;;;;;;4.37;2.70;;;17.10;99.90;;;;;;5011693;28;20227;-64
2022/06/03 07:04:41;;;;;;;4.13;2.90;;;17.20;99.90;;;;;;5011227;28;20232;-63
2022/06/03 07:07:20;;;;;;;3.97;2.70;;;17.20;99.90;;;;;;5008956;28;20308;-63
2022/06/03 07:10:07;;;;;;;4.30;2.93;;;17.30;99.90;;;;;;5011630;28;20310;-69
2022/06/03 07:12:57;;;;;;;4.97;3.63;;;17.30;99.90;;;;;;5011676;28;20196;-65
2022/06/03 07:15:38;;;;;;;5.40;2.60;;;17.30;99.90;;;;;;5011464;28;20235;-78
2022/06/03 07:21:03;;;;;;;7.17;3.33;;;17.30;99.90;;;;;;5011449;28;20236;-68
2022/06/03 07:23:53;;;;;;;5.13;2.90;;;17.40;99.90;;;;;;5011493;28;20673;-65
2022/06/03 07:26:38;;;;;;;6.40;3.00;;;17.40;99.90;;;;;;5011480;28;20219;-72
2022/06/03 07:29:20;;;;;;;3.37;2.87;;;17.60;99.90;;;;;;5010981;28;20220;-64
2022/06/03 07:31:55;;;;;;;3.67;2.60;;;17.70;99.90;;;;;;5008628;28;20219;-67
2022/06/03 07:34:34;;;;;;;2.73;2.23;;;17.50;99.90;;;;;;5011674;28;20203;-66
2022/06/03 07:37:08;;;;;;;3.20;2.63;;;17.70;99.90;;;;;;5011041;28;20250;-64
2022/06/03 07:39:37;;;;;;;4.43;2.80;;;17.80;99.90;;;;;;4993351;28;20730;-70
2022/06/03 07:42:26;;;;;;;3.70;2.70;;;17.70;99.90;;;;;;5011177;28;20678;-67
2022/06/03 07:45:19;;;;;;;4.93;3.07;;;17.60;99.90;;;;;;5011178;28;20252;-70
2022/06/03 07:47:46;;;;;;;3.83;2.57;;;17.70;99.90;;;;;;5010399;28;20251;-64
2022/06/03 07:50:17;;;;;;;2.70;2.50;;;18.00;99.90;;;;;;5011129;28;20294;-70
2022/06/03 07:52:47;;;;;;;4.93;2.77;;;18.20;99.90;;;;;;5011134;28;20196;-65
2022/06/03 07:55:21;;;;;;;4.33;2.70;;;18.20;99.90;;;;;;5010760;28;20732;-65
2022/06/03 07:57:56;;;;;;;2.60;2.37;;;18.20;99.90;;;;;;5011305;28;20195;-73
2022/06/03 08:00:24;;;;;;;3.40;2.43;;;18.40;99.90;;;;;;5011659;28;20273;-66
2022/06/03 08:03:26;;;;;;;3.50;2.27;;;18.60;99.90;;;;;;5027714;28;20279;-67
2022/06/03 08:05:58;;;;;;;4.67;2.20;;;18.70;99.90;;;;;;4971422;28;20239;-65
2022/06/03 08:11:17;;;;;;;2.67;2.10;;;18.70;99.90;;;;;;4952509;28;20285;-63
2022/06/03 08:13:50;;;;;;;3.37;2.00;;;18.60;99.90;;;;;;4971070;28;20229;-65
2022/06/03 08:16:22;;;;;;;3.33;2.27;;;18.50;99.90;;;;;;4955199;28;20753;-63
2022/06/03 08:18:51;;;;;;;2.83;1.90;;;18.60;99.90;;;;;;4974477;28;20229;-62
2022/06/03 08:21:41;;;;;;;4.43;2.37;;;18.90;99.90;;;;;;4958037;28;20320;-63
2022/06/03 08:24:14;;;;;;;2.67;1.97;;;19.70;99.90;;;;;;4942145;28;20257;-64
2022/06/03 08:26:46;;;;;;;3.57;1.90;;;20.10;99.90;;;;;;4957988;28;20316;-69
2022/06/03 08:29:27;;;;;;;3.13;2.20;;;21.00;99.90;;;;;;4958374;28;20316;-64
2022/06/03 08:31:56;;;;;;;3.87;2.70;;;21.20;99.90;;;;;;4958354;28;20312;-64
2022/06/03 08:34:32;;;;;;;2.40;2.10;;;21.60;96.90;;;;;;4958250;28;20205;-66
2022/06/03 08:37:00;;;;;;;3.37;2.30;;;21.30;95.70;;;;;;4974482;28;20280;-66
2022/06/03 08:39:31;;;;;;;2.80;2.13;;;20.70;96.90;;;;;;4958225;28;20209;-66
2022/06/03 08:42:59;;;;;;;4.73;2.50;;;20.60;99.90;;;;;;4982798;28;20197;-69
2022/06/03 08:45:39;;;;;;;2.37;1.80;;;20.00;98.60;;;;;;4935521;29;20262;-65
2022/06/03 08:48:13;;;;;;;3.13;2.13;;;19.50;97.10;;;;;;4935953;29;20213;-72
2022/06/03 08:50:53;;;;;;;11.13;2.77;;;19.30;99.90;;;;;;4919840;29;20221;-66
2022/06/03 08:53:44;;;;;;;4.67;1.93;;;20.00;99.90;;;;;;4919378;29;20235;-65
2022/06/03 08:56:19;;;;;;;4.47;2.03;;;21.10;96.80;;;;;;4919361;29;20301;-79
2022/06/03 08:58:56;;;;;;;3.60;2.00;;;21.10;95.90;;;;;;4935771;29;20238;-64
2022/06/03 09:01:27;;;;;;;4.87;2.20;;;21.40;94.90;;;;;;4919863;29;20653;-72
2022/06/03 09:04:24;;;;;;;2.10;1.80;;;22.20;96.80;;;;;;4919659;29;20270;-66
2022/06/03 09:07:15;;;;;;;2.47;2.10;;;23.20;93.70;;;;;;4920368;28;20275;-71
2022/06/03 09:10:15;;;;;;;4.15;2.05;;;24.30;94.60;;;;;;4954069;28;20257;-66
2022/06/03 09:13:09;;;;;;;6.50;2.35;;;24.80;88.60;;;;;;4948373;28;20225;-66
2022/06/03 09:15:41;;;;;;;3.65;2.40;;;24.50;90.90;;;;;;4928396;29;20747;-72
2022/06/03 09:18:13;;;;;;;5.20;2.50;;;24.00;83.20;;;;;;4928464;29;20306;-70
2022/06/03 09:20:57;;;;;;;3.08;2.55;;;23.40;82.70;;;;;;4934564;28;20253;-69
2022/06/03 09:23:26;;;;;;;3.30;2.45;;;22.60;85.80;;;;;;4966701;28;20225;-67
2022/06/03 09:25:57;;;;;;;3.38;2.40;;;21.90;87.50;;;;;;4957072;28;20763;-70
2022/06/03 09:28:28;;;;;;;3.67;2.83;;;21.30;90.70;;;;;;4957282;28;20300;-62
2022/06/03 09:30:59;;;;;;;3.67;2.00;;;21.10;93.50;;;;;;4973566;28;20316;-63
2022/06/03 09:33:28;;;;;;;2.87;2.00;;;21.50;94.20;;;;;;4973591;28;20204;-62
2022/06/03 09:35:59;;;;;;;2.20;1.93;;;21.60;90.70;;;;;;4973361;28;20205;-68
2022/06/03 09:38:30;;;;;;;3.03;2.10;;;21.90;91.80;;;;;;4977525;28;20225;-74
2022/06/03 09:40:59;;;;;;;3.43;2.57;;;21.60;90.30;;;;;;4976558;28;20726;-66
2022/06/03 09:43:33;;;;;;;2.30;2.10;;;21.70;90.50;;;;;;4976260;28;20236;-64
2022/06/03 09:46:02;;;;;;;4.90;2.60;;;21.40;91.50;;;;;;4976398;28;20209;-75
2022/06/03 09:48:36;;;;;;;3.33;1.83;;;21.10;87.80;;;;;;5007200;28;20690;-71
2022/06/03 09:51:25;;;;;;;3.47;1.93;;;21.50;93.30;;;;;;5032764;28;20195;-66
2022/06/03 09:53:52;;;;;;;2.67;1.80;;;22.00;87.30;;;;;;5012704;28;20206;-65
2022/06/03 09:56:30;;;;;;;2.50;2.00;;;22.90;88.50;;;;;;5025141;28;20286;-69
2022/06/03 09:59:00;;;;;;;2.30;2.10;;;23.80;87.50;;;;;;5032547;28;20657;-65
2022/06/03 10:01:28;;;;;;;4.35;2.10;;;24.00;85.10;;;;;;5032680;28;20249;-62
2022/06/03 10:03:59;;;;;;;3.08;2.10;;;23.50;80.70;;;;;;5033701;28;20196;-69
2022/06/03 10:06:50;;;;;;;4.22;2.45;;;23.70;80.40;;;;;;5018641;28;20587;-66
2022/06/03 10:18:00;;;;;;;4.05;2.50;;;24.20;75.40;;;;;;5002865;28;20235;-65
2022/06/03 10:20:27;;;;;;;3.08;2.40;;;24.40;76.00;;;;;;5012394;28;20319;-68
2022/06/03 10:22:55;;;;;;;5.68;2.92;;;24.10;72.20;;;;;;5004028;28;20259;-63
2022/06/03 10:25:27;;;;;;;4.93;2.88;;;24.00;75.60;;;;;;4993130;28;20379;-67
2022/06/03 10:27:54;;;;;;;2.30;2.10;;;23.60;77.20;;;;;;4994199;28;20197;-65
2022/06/03 10:30:32;;;;;;;3.30;2.33;;;23.50;75.20;;;;;;4994225;28;20644;-70
2022/06/03 10:33:00;;;;;;;2.35;2.15;;;23.80;79.10;;;;;;4992630;28;20259;-67
2022/06/03 10:35:29;;;;;;;2.75;2.33;;;23.90;76.30;;;;;;4994124;28;20209;-76
2022/06/03 10:38:03;;;;;;;5.18;2.50;;;23.60;71.90;;;;;;4992559;28;20563;-75
2022/06/03 10:40:33;;;;;;;2.78;2.20;;;23.40;75.50;;;;;;4991992;28;20205;-75
2022/06/03 10:43:03;;;;;;;4.07;2.20;;;23.70;78.10;;;;;;5008435;28;20632;-69
2022/06/03 10:45:37;;;;;;;2.60;2.30;;;23.80;76.80;;;;;;4993625;28;20199;-64
2022/06/03 10:48:24;;;;;;;2.88;2.53;;;23.40;76.90;;;;;;4992613;28;20698;-66
2022/06/03 10:50:51;;;;;;;7.05;2.80;;;23.30;77.90;;;;;;4994124;28;20228;-65
2022/06/03 11:01:53;;;;;;;4.70;2.90;;;25.50;72.00;;;;;;5012054;28;20645;-74
2022/06/03 11:04:29;;;;;;;3.45;2.45;;;25.70;66.50;;;;;;5011797;28;20211;-66
2022/06/03 11:06:59;;;;;;;4.50;2.70;;;25.80;69.40;;;;;;5009990;28;20760;-76
2022/06/03 11:09:26;;;;;;;3.20;2.60;;;25.90;67.90;;;;;;4995409;28;20303;-72
2022/06/03 11:12:01;;;;;;;4.68;3.10;;;25.60;68.10;;;;;;4991877;28;20730;-77
2022/06/03 11:14:40;;;;;;;2.95;2.65;;;26.20;67.50;;;;;;5001573;28;20188;-65
2022/06/03 11:17:23;;;;;;;4.53;2.50;;;26.60;68.30;;;;;;4992134;28;20213;-71
2022/06/03 11:19:52;;;;;;;4.47;2.53;;;26.80;67.10;;;;;;4991929;28;20283;-76
2022/06/03 11:22:32;;;;;;;2.78;2.20;;;27.00;66.70;;;;;;4993061;28;20251;-65
2022/06/03 11:25:02;;;;;;;3.20;2.22;;;27.40;64.80;;;;;;4991546;28;20200;-66
2022/06/03 11:27:55;;;;;;;4.15;3.42;;;27.60;63.10;;;;;;4991763;28;20225;-69
2022/06/03 11:30:39;;;;;;;4.13;3.00;;;27.50;63.30;;;;;;5002525;28;20216;-73
2022/06/03 11:33:45;;;;;;;2.45;2.25;;;27.10;61.70;;;;;;5011680;28;20204;-76
2022/06/03 11:36:33;;;;;;;2.83;2.38;;;26.90;60.60;;;;;;5011122;28;20199;-65
2022/06/03 11:39:13;;;;;;;2.80;2.50;;;26.60;63.70;;;;;;5030075;28;20251;-65
2022/06/03 11:42:07;;;;;;;3.17;2.60;;;26.50;63.10;;;;;;5021699;28;20254;-65
2022/06/03 11:44:53;;;;;;;5.53;2.63;;;26.70;60.70;;;;;;5011534;28;20208;-64
2022/06/03 11:47:48;;;;;;;3.28;2.42;;;27.00;61.60;;;;;;5011495;28;20200;-66
2022/06/03 11:50:19;;;;;;;2.75;2.33;;;27.80;61.20;;;;;;5011761;28;20224;-65
2022/06/03 11:52:49;;;;;;;3.85;2.60;;;28.10;58.30;;;;;;5012657;28;20629;-70
2022/06/03 11:55:22;;;;;;;2.72;2.42;;;28.00;58.70;;;;;;4995475;28;20291;-67
2022/06/03 11:58:04;;;;;;;2.58;2.20;;;27.80;57.50;;;;;;4995488;28;20635;-67
2022/06/03 12:00:37;;;;;;;3.88;2.28;;;27.50;58.70;;;;;;4995585;28;20295;-63
2022/06/03 12:03:16;;;;;;;3.03;2.50;;;27.10;59.20;;;;;;5011483;28;20276;-62
2022/06/03 12:05:50;;;;;;;3.13;2.30;;;27.80;60.80;;;;;;5002987;28;20204;-73
2022/06/03 12:08:24;;;;;;;4.35;2.30;;;27.90;55.80;;;;;;5010104;28;20205;-72
2022/06/03 12:10:59;;;;;;;2.60;2.35;;;27.30;58.20;;;;;;5012761;28;21055;-64
2022/06/03 12:13:31;;;;;;;2.50;2.30;;;26.80;58.60;;;;;;5016525;28;20199;-66
2022/06/03 12:16:00;;;;;;;8.13;3.17;;;26.80;60.90;;;;;;5014766;28;20200;-64
2022/06/03 12:18:39;;;;;;;4.20;2.67;;;25.90;59.80;;;;;;5014786;28;20232;-67
2022/06/03 12:21:34;;;;;;;3.55;2.30;;;24.90;61.70;;;;;;5014295;28;20760;-65
2022/06/03 12:24:30;;;;;;;3.17;2.38;;;25.60;62.90;;;;;;5014966;28;20211;-64
2022/06/03 12:27:01;;;;;;;3.45;2.38;;;27.00;61.00;;;;;;5014183;28;20259;-63
2022/06/03 12:29:38;;;;;;;4.40;2.55;;;27.90;58.90;;;;;;5014346;28;20589;-65
2022/06/03 12:32:14;;;;;;;3.53;2.25;;;28.10;56.70;;;;;;5015857;28;20524;-65
2022/06/03 12:34:41;;;;;;;2.53;2.33;;;27.70;54.90;;;;;;5014327;28;20251;-66
2022/06/03 12:37:27;;;;;;;3.58;2.35;;;27.30;55.50;;;;;;5014094;28;20673;-72
2022/06/03 12:40:04;;;;;;;4.57;2.35;;;27.80;55.90;;;;;;5008295;28;20270;-65
2022/06/03 12:42:40;;;;;;;2.88;2.17;;;28.40;54.40;;;;;;5014491;28;20230;-65
2022/06/03 12:45:13;;;;;;;2.95;2.20;;;28.60;54.30;;;;;;5014039;28;20220;-64
2022/06/03 12:47:45;;;;;;;2.78;2.20;;;28.60;55.10;;;;;;5014298;28;20188;-65
2022/06/03 12:50:26;;;;;;;3.40;2.10;;;28.50;53.30;;;;;;5014153;28;20234;-63
2022/06/03 12:53:02;;;;;;;2.60;2.10;;;29.00;55.00;;;;;;5014509;28;20235;-69
2022/06/03 12:55:36;;;;;;;2.95;2.22;;;29.70;53.50;;;;;;5014001;28;20290;-75
2022/06/03 12:58:42;;;;;;;2.33;2.13;;;30.10;51.90;;;;;;5014010;28;20294;-66
2022/06/03 13:01:10;;;;;;;4.72;2.03;;;30.80;52.20;;;;;;5014051;28;20235;-66
2022/06/03 13:03:40;;;;;;;2.78;1.90;;;31.30;51.00;;;;;;5015117;28;20192;-69
2022/06/03 13:06:09;;;;;;;2.28;1.90;;;31.20;49.50;;;;;;5010610;28;20216;-64
2022/06/03 13:11:30;;;;;;;2.92;2.08;;;29.20;50.90;;;;;;5014744;28;20251;-69
2022/06/03 13:13:57;;;;;;;3.00;1.80;;;29.00;49.80;;;;;;5013697;28;20196;-70
2022/06/03 13:16:31;;;;;;;2.00;1.90;;;29.50;49.90;;;;;;5013549;28;20649;-68
2022/06/03 13:19:12;;;;;;;3.15;1.80;;;30.30;49.80;;;;;;5013567;28;20202;-76
2022/06/03 13:21:57;;;;;;;2.72;2.15;;;30.90;51.00;;;;;;5013374;28;20370;-66
2022/06/03 13:24:30;;;;;;;3.50;2.00;;;30.20;49.70;;;;;;5012900;28;20870;-64
2022/06/03 13:27:24;;;;;;;2.30;2.10;;;30.00;49.70;;;;;;5013307;28;20259;-73
2022/06/03 13:29:52;;;;;;;2.90;1.90;;;29.60;50.70;;;;;;5011403;28;20316;-69
2022/06/03 13:32:35;;;;;;;1.95;1.77;;;29.60;52.00;;;;;;5011888;28;20211;-65
2022/06/03 13:35:08;;;;;;;1.95;1.70;;;30.70;49.10;;;;;;4998807;28;20200;-65
2022/06/03 13:38:07;;;;;;;1.80;1.70;;;31.40;48.30;;;;;;5015143;28;20311;-64
2022/06/03 13:40:35;;;;;;;2.60;2.03;;;32.10;47.10;;;;;;4956535;28;20249;-63
2022/06/03 13:43:08;;;;;;;2.03;1.70;;;32.50;46.70;;;;;;4972813;28;20233;-63
2022/06/03 13:46:00;;;;;;;2.33;1.73;;;33.00;45.90;;;;;;4972801;28;20211;-63
2022/06/03 13:48:42;;;;;;;3.47;1.80;;;32.40;44.80;;;;;;4978345;28;20566;-69
2022/06/03 13:51:30;;;;;;;1.90;1.58;;;32.90;44.90;;;;;;4956346;28;20252;-75
2022/06/03 13:54:07;;;;;;;1.63;1.52;;;33.30;44.40;;;;;;4976533;28;20221;-90
2022/06/03 13:56:35;;;;;;;4.00;1.67;;;32.70;45.10;;;;;;4974115;28;20730;-65
2022/06/03 13:59:13;;;;;;;1.90;1.70;;;31.10;45.00;;;;;;4959172;28;20304;-84
2022/06/03 14:01:44;;;;;;;3.92;1.80;;;31.40;46.00;;;;;;4966113;28;20649;-80
2022/06/03 14:04:27;;;;;;;1.90;1.75;;;31.20;45.20;;;;;;4977204;28;20586;-68
2022/06/03 14:06:59;;;;;;;2.17;1.77;;;30.10;46.60;;;;;;4956043;28;20594;-66
2022/06/03 14:09:49;;;;;;;2.55;1.85;;;29.10;48.60;;;;;;4971319;28;20198;-70
2022/06/03 14:12:40;;;;;;;2.20;2.00;;;28.90;50.40;;;;;;4981299;28;20717;-69
2022/06/03 14:15:22;;;;;;;4.05;2.00;;;28.00;50.60;;;;;;4991191;28;20200;-69
2022/06/03 14:17:53;;;;;;;2.00;1.80;;;28.20;50.90;;;;;;5004685;28;20239;-66
2022/06/03 14:20:23;;;;;;;2.75;1.70;;;28.90;49.70;;;;;;5032331;28;20258;-67
2022/06/03 14:23:11;;;;;;;3.40;2.40;;;28.80;50.20;;;;;;5032653;28;20208;-74
2022/06/03 14:25:50;;;;;;;3.45;2.25;;;28.70;50.50;;;;;;5032285;28;20286;-81
2022/06/03 14:28:38;;;;;;;7.47;2.08;;;27.90;51.30;;;;;;5032429;28;20191;-82
2022/06/03 14:31:26;;;;;;;6.47;2.13;;;27.40;51.70;;;;;;5032559;28;20658;-78